sensor_id;sensor_type;location;lat;lon;timestamp;temperature;humidity
5846;DHT22;2949;50.778;7.094;2023-04-25T00:01:31;7.50;99.90
5846;DHT22;2949;50.778;7.094;2023-04-25T00:03:58;7.50;99.90
5846;DHT22;2949;50.778;7.094;2023-04-25T00:06:24;7.50;99.90
5846;DHT22;2949;50.778;7.094;2023-04-25T00:08:52;7.40;99.90
5846;DHT22;2949;50.778;7.094;2023-04-25T00:11:18;7.40;99.90
5846;DHT22;2949;50.778;7.094;2023-04-25T00:13:43;7.30;99.90
5846;DHT22;2949;50.778;7.094;2023-04-25T00:16:09;7.20;99.90
5846;DHT22;2949;50.778;7.094;2023-04-25T00:18:34;7.20;99.90
5846;DHT22;2949;50.778;7.094;2023-04-25T00:21:00;7.20;99.90
5846;DHT22;2949;50.778;7.094;2023-04-25T00:23:25;7.20;99.90
5846;DHT22;2949;50.778;7.094;2023-04-25T00:25:51;7.10;99.90
5846;DHT22;2949;50.778;7.094;2023-04-25T00:28:17;7.10;99.90
5846;DHT22;2949;50.778;7.094;2023-04-25T00:30:43;7.00;99.90
5846;DHT22;2949;50.778;7.094;2023-04-25T00:33:09;7.00;99.90
5846;DHT22;2949;50.778;7.094;2023-04-25T00:35:34;6.90;99.90
5846;DHT22;2949;50.778;7.094;2023-04-25T00:38:00;6.80;99.90
5846;DHT22;2949;50.778;7.094;2023-04-25T00:40:26;6.80;99.90
5846;DHT22;2949;50.778;7.094;2023-04-25T00:42:52;6.70;99.90
5846;DHT22;2949;50.778;7.094;2023-04-25T00:45:18;6.70;99.90
5846;DHT22;2949;50.778;7.094;2023-04-25T00:47:44;6.60;99.90
5846;DHT22;2949;50.778;7.094;2023-04-25T00:50:11;6.60;99.90
5846;DHT22;2949;50.778;7.094;2023-04-25T00:52:43;6.50;99.90
5846;DHT22;2949;50.778;7.094;2023-04-25T00:55:10;6.50;99.90
5846;DHT22;2949;50.778;7.094;2023-04-25T00:57:36;6.40;99.90
5846;DHT22;2949;50.778;7.094;2023-04-25T01:00:03;6.40;99.90
5846;DHT22;2949;50.778;7.094;2023-04-25T01:02:32;6.30;99.90
5846;DHT22;2949;50.778;7.094;2023-04-25T01:04:58;6.20;99.90
5846;DHT22;2949;50.778;7.094;2023-04-25T01:07:23;6.10;99.90
5846;DHT22;2949;50.778;7.094;2023-04-25T01:09:51;6.00;99.90
5846;DHT22;2949;50.778;7.094;2023-04-25T01:12:16;5.90;99.90
5846;DHT22;2949;50.778;7.094;2023-04-25T01:14:42;5.80;99.90
5846;DHT22;2949;50.778;7.094;2023-04-25T01:17:09;5.70;99.90
5846;DHT22;2949;50.778;7.094;2023-04-25T01:19:35;5.60;99.90
5846;DHT22;2949;50.778;7.094;2023-04-25T01:22:01;5.60;99.90
5846;DHT22;2949;50.778;7.094;2023-04-25T01:24:26;5.60;99.90
5846;DHT22;2949;50.778;7.094;2023-04-25T01:26:53;5.50;99.90
5846;DHT22;2949;50.778;7.094;2023-04-25T01:29:21;5.40;99.90
5846;DHT22;2949;50.778;7.094;2023-04-25T01:31:47;5.40;99.90
5846;DHT22;2949;50.778;7.094;2023-04-25T01:34:13;5.30;99.90
5846;DHT22;2949;50.778;7.094;2023-04-25T01:36:39;5.20;99.90
5846;DHT22;2949;50.778;7.094;2023-04-25T01:39:06;5.10;99.90
5846;DHT22;2949;50.778;7.094;2023-04-25T01:41:32;5.10;99.90
5846;DHT22;2949;50.778;7.094;2023-04-25T01:43:58;5.00;99.90
5846;DHT22;2949;50.778;7.094;2023-04-25T01:46:23;4.90;99.90
5846;DHT22;2949;50.778;7.094;2023-04-25T01:48:49;4.80;99.90
5846;DHT22;2949;50.778;7.094;2023-04-25T01:51:15;4.80;99.90
5846;DHT22;2949;50.778;7.094;2023-04-25T01:53:41;4.70;99.90
5846;DHT22;2949;50.778;7.094;2023-04-25T01:56:07;4.60;99.90
5846;DHT22;2949;50.778;7.094;2023-04-25T01:58:33;4.70;99.90
5846;DHT22;2949;50.778;7.094;2023-04-25T02:00:59;4.80;99.90
5846;DHT22;2949;50.778;7.094;2023-04-25T02:03:24;4.90;99.90
5846;DHT22;2949;50.778;7.094;2023-04-25T02:05:50;5.00;99.90
5846;DHT22;2949;50.778;7.094;2023-04-25T02:08:16;5.10;99.90
5846;DHT22;2949;50.778;7.094;2023-04-25T02:10:42;5.20;99.90
5846;DHT22;2949;50.778;7.094;2023-04-25T02:13:07;5.40;99.90
5846;DHT22;2949;50.778;7.094;2023-04-25T02:15:33;5.50;99.90
5846;DHT22;2949;50.778;7.094;2023-04-25T02:17:58;5.70;99.90
5846;DHT22;2949;50.778;7.094;2023-04-25T02:20:26;5.80;99.90
5846;DHT22;2949;50.778;7.094;2023-04-25T02:22:52;5.90;99.90
5846;DHT22;2949;50.778;7.094;2023-04-25T02:25:18;6.00;99.90
5846;DHT22;2949;50.778;7.094;2023-04-25T02:27:46;6.00;99.90
5846;DHT22;2949;50.778;7.094;2023-04-25T02:30:11;6.10;99.90
5846;DHT22;2949;50.778;7.094;2023-04-25T02:32:38;6.10;99.90
5846;DHT22;2949;50.778;7.094;2023-04-25T02:35:04;6.10;99.90
5846;DHT22;2949;50.778;7.094;2023-04-25T02:37:31;6.10;99.90
5846;DHT22;2949;50.778;7.094;2023-04-25T02:39:57;6.10;99.90
5846;DHT22;2949;50.778;7.094;2023-04-25T02:42:22;6.10;99.90
5846;DHT22;2949;50.778;7.094;2023-04-25T02:44:48;6.10;99.90
5846;DHT22;2949;50.778;7.094;2023-04-25T02:47:14;6.10;99.90
5846;DHT22;2949;50.778;7.094;2023-04-25T02:49:39;6.10;99.90
5846;DHT22;2949;50.778;7.094;2023-04-25T02:52:05;6.10;99.90
5846;DHT22;2949;50.778;7.094;2023-04-25T02:54:31;6.00;99.90
5846;DHT22;2949;50.778;7.094;2023-04-25T02:56:56;6.00;99.90
5846;DHT22;2949;50.778;7.094;2023-04-25T02:59:22;5.90;99.90
5846;DHT22;2949;50.778;7.094;2023-04-25T03:01:47;5.80;99.90
5846;DHT22;2949;50.778;7.094;2023-04-25T03:04:13;5.70;99.90
5846;DHT22;2949;50.778;7.094;2023-04-25T03:06:38;5.60;99.90
5846;DHT22;2949;50.778;7.094;2023-04-25T03:09:04;5.50;99.90
5846;DHT22;2949;50.778;7.094;2023-04-25T03:11:29;5.50;99.90
5846;DHT22;2949;50.778;7.094;2023-04-25T03:13:55;5.40;99.90
5846;DHT22;2949;50.778;7.094;2023-04-25T03:16:21;5.40;99.90
5846;DHT22;2949;50.778;7.094;2023-04-25T03:18:47;5.30;99.90
5846;DHT22;2949;50.778;7.094;2023-04-25T03:21:12;5.30;99.90
5846;DHT22;2949;50.778;7.094;2023-04-25T03:23:38;5.30;99.90
5846;DHT22;2949;50.778;7.094;2023-04-25T03:26:03;5.30;99.90
5846;DHT22;2949;50.778;7.094;2023-04-25T03:28:29;5.20;99.90
5846;DHT22;2949;50.778;7.094;2023-04-25T03:30:54;5.20;99.90
5846;DHT22;2949;50.778;7.094;2023-04-25T03:33:20;5.20;99.90
5846;DHT22;2949;50.778;7.094;2023-04-25T03:35:46;5.10;99.90
5846;DHT22;2949;50.778;7.094;2023-04-25T03:38:11;5.10;99.90
5846;DHT22;2949;50.778;7.094;2023-04-25T03:40:37;5.00;99.90
5846;DHT22;2949;50.778;7.094;2023-04-25T03:43:02;5.00;99.90
5846;DHT22;2949;50.778;7.094;2023-04-25T03:45:28;5.00;99.90
5846;DHT22;2949;50.778;7.094;2023-04-25T03:47:53;5.10;99.90
5846;DHT22;2949;50.778;7.094;2023-04-25T03:50:19;5.10;99.90
5846;DHT22;2949;50.778;7.094;2023-04-25T03:52:44;5.10;99.90
5846;DHT22;2949;50.778;7.094;2023-04-25T03:55:10;5.20;99.90
5846;DHT22;2949;50.778;7.094;2023-04-25T03:57:35;5.20;99.90
5846;DHT22;2949;50.778;7.094;2023-04-25T04:00:01;5.30;99.90
5846;DHT22;2949;50.778;7.094;2023-04-25T04:02:27;5.40;99.90
5846;DHT22;2949;50.778;7.094;2023-04-25T04:04:52;5.40;99.90
5846;DHT22;2949;50.778;7.094;2023-04-25T04:07:18;5.50;99.90
5846;DHT22;2949;50.778;7.094;2023-04-25T04:09:43;5.60;99.90
5846;DHT22;2949;50.778;7.094;2023-04-25T04:12:09;5.60;99.90
5846;DHT22;2949;50.778;7.094;2023-04-25T04:14:35;5.70;99.90
5846;DHT22;2949;50.778;7.094;2023-04-25T04:17:00;5.70;99.90
5846;DHT22;2949;50.778;7.094;2023-04-25T04:19:26;5.80;99.90
5846;DHT22;2949;50.778;7.094;2023-04-25T04:21:51;5.80;99.90
5846;DHT22;2949;50.778;7.094;2023-04-25T04:24:17;5.80;99.90
5846;DHT22;2949;50.778;7.094;2023-04-25T04:26:42;5.80;99.90
5846;DHT22;2949;50.778;7.094;2023-04-25T04:29:10;5.90;99.90
5846;DHT22;2949;50.778;7.094;2023-04-25T04:31:36;5.90;99.90
5846;DHT22;2949;50.778;7.094;2023-04-25T04:34:02;6.00;99.90
5846;DHT22;2949;50.778;7.094;2023-04-25T04:36:29;6.00;99.90
5846;DHT22;2949;50.778;7.094;2023-04-25T04:38:54;6.10;99.90
5846;DHT22;2949;50.778;7.094;2023-04-25T04:41:21;6.10;99.90
5846;DHT22;2949;50.778;7.094;2023-04-25T04:43:47;6.20;99.90
5846;DHT22;2949;50.778;7.094;2023-04-25T04:46:13;6.20;99.90
5846;DHT22;2949;50.778;7.094;2023-04-25T04:48:38;6.30;99.90
5846;DHT22;2949;50.778;7.094;2023-04-25T04:51:06;6.30;99.90
5846;DHT22;2949;50.778;7.094;2023-04-25T04:53:32;6.40;99.90
5846;DHT22;2949;50.778;7.094;2023-04-25T04:55:57;6.40;99.90
5846;DHT22;2949;50.778;7.094;2023-04-25T04:58:23;6.40;99.90
5846;DHT22;2949;50.778;7.094;2023-04-25T05:00:49;6.40;99.90
5846;DHT22;2949;50.778;7.094;2023-04-25T05:03:14;6.40;99.90
5846;DHT22;2949;50.778;7.094;2023-04-25T05:05:41;6.50;99.90
5846;DHT22;2949;50.778;7.094;2023-04-25T05:08:06;6.50;99.90
5846;DHT22;2949;50.778;7.094;2023-04-25T05:10:32;6.50;99.90
5846;DHT22;2949;50.778;7.094;2023-04-25T05:12:58;6.60;99.90
5846;DHT22;2949;50.778;7.094;2023-04-25T05:15:23;6.60;99.90
5846;DHT22;2949;50.778;7.094;2023-04-25T05:17:49;6.60;99.90
5846;DHT22;2949;50.778;7.094;2023-04-25T05:20:14;6.60;99.90
5846;DHT22;2949;50.778;7.094;2023-04-25T05:22:40;6.70;99.90
5846;DHT22;2949;50.778;7.094;2023-04-25T05:25:07;6.80;99.90
5846;DHT22;2949;50.778;7.094;2023-04-25T05:27:33;6.80;99.90
5846;DHT22;2949;50.778;7.094;2023-04-25T05:29:59;6.90;99.90
5846;DHT22;2949;50.778;7.094;2023-04-25T05:32:24;7.00;99.90
5846;DHT22;2949;50.778;7.094;2023-04-25T05:34:50;7.10;99.90
5846;DHT22;2949;50.778;7.094;2023-04-25T05:37:17;7.10;99.90
5846;DHT22;2949;50.778;7.094;2023-04-25T05:39:42;7.20;99.90
5846;DHT22;2949;50.778;7.094;2023-04-25T05:42:08;7.30;99.90
5846;DHT22;2949;50.778;7.094;2023-04-25T05:44:33;7.40;99.90
5846;DHT22;2949;50.778;7.094;2023-04-25T05:46:59;7.50;99.90
5846;DHT22;2949;50.778;7.094;2023-04-25T05:49:24;7.60;99.90
5846;DHT22;2949;50.778;7.094;2023-04-25T05:51:50;7.70;99.90
5846;DHT22;2949;50.778;7.094;2023-04-25T05:54:15;7.90;99.90
5846;DHT22;2949;50.778;7.094;2023-04-25T05:56:41;8.10;99.90
5846;DHT22;2949;50.778;7.094;2023-04-25T05:59:06;8.30;99.90
5846;DHT22;2949;50.778;7.094;2023-04-25T06:01:32;8.40;99.90
5846;DHT22;2949;50.778;7.094;2023-04-25T06:03:57;8.50;99.90
5846;DHT22;2949;50.778;7.094;2023-04-25T06:06:23;8.60;99.90
5846;DHT22;2949;50.778;7.094;2023-04-25T06:08:48;8.80;99.90
5846;DHT22;2949;50.778;7.094;2023-04-25T06:11:14;8.80;99.90
5846;DHT22;2949;50.778;7.094;2023-04-25T06:13:39;8.90;99.90
5846;DHT22;2949;50.778;7.094;2023-04-25T06:16:05;9.10;99.90
5846;DHT22;2949;50.778;7.094;2023-04-25T06:18:31;9.20;99.90
5846;DHT22;2949;50.778;7.094;2023-04-25T06:20:56;9.30;99.90
5846;DHT22;2949;50.778;7.094;2023-04-25T06:23:22;9.60;99.90
5846;DHT22;2949;50.778;7.094;2023-04-25T06:25:47;9.80;99.90
5846;DHT22;2949;50.778;7.094;2023-04-25T06:28:13;10.00;99.90
5846;DHT22;2949;50.778;7.094;2023-04-25T06:30:38;10.20;99.90
5846;DHT22;2949;50.778;7.094;2023-04-25T06:33:04;11.40;99.90
5846;DHT22;2949;50.778;7.094;2023-04-25T06:35:29;13.90;99.90
5846;DHT22;2949;50.778;7.094;2023-04-25T06:37:55;15.10;99.90
5846;DHT22;2949;50.778;7.094;2023-04-25T06:40:20;15.00;99.90
5846;DHT22;2949;50.778;7.094;2023-04-25T06:42:46;14.60;99.90
5846;DHT22;2949;50.778;7.094;2023-04-25T06:45:11;14.70;99.90
5846;DHT22;2949;50.778;7.094;2023-04-25T06:47:37;14.30;99.90
5846;DHT22;2949;50.778;7.094;2023-04-25T06:50:03;14.10;99.90
5846;DHT22;2949;50.778;7.094;2023-04-25T06:52:28;13.80;99.90
5846;DHT22;2949;50.778;7.094;2023-04-25T06:54:54;14.20;99.90
5846;DHT22;2949;50.778;7.094;2023-04-25T06:57:19;15.00;99.90
5846;DHT22;2949;50.778;7.094;2023-04-25T06:59:45;16.50;99.90
5846;DHT22;2949;50.778;7.094;2023-04-25T07:02:11;16.60;99.60
5846;DHT22;2949;50.778;7.094;2023-04-25T07:04:36;16.70;99.20
5846;DHT22;2949;50.778;7.094;2023-04-25T07:07:02;19.10;94.50
5846;DHT22;2949;50.778;7.094;2023-04-25T07:09:28;21.20;87.80
5846;DHT22;2949;50.778;7.094;2023-04-25T07:11:54;22.80;76.10
5846;DHT22;2949;50.778;7.094;2023-04-25T11:43:20;24.20;69.40
5846;DHT22;2949;50.778;7.094;2023-04-25T11:45:50;12.20;92.20
5846;DHT22;2949;50.778;7.094;2023-04-25T11:48:19;11.80;92.20
5846;DHT22;2949;50.778;7.094;2023-04-25T11:50:45;11.70;94.20
5846;DHT22;2949;50.778;7.094;2023-04-25T11:53:11;11.60;94.50
5846;DHT22;2949;50.778;7.094;2023-04-25T11:55:37;11.40;95.10
5846;DHT22;2949;50.778;7.094;2023-04-25T11:58:04;11.20;95.50
5846;DHT22;2949;50.778;7.094;2023-04-25T12:00:30;10.90;95.50
5846;DHT22;2949;50.778;7.094;2023-04-25T12:02:57;10.70;95.30
5846;DHT22;2949;50.778;7.094;2023-04-25T12:05:29;10.70;93.70
5846;DHT22;2949;50.778;7.094;2023-04-25T12:07:55;10.70;92.40
5846;DHT22;2949;50.778;7.094;2023-04-25T12:10:20;10.80;91.60
5846;DHT22;2949;50.778;7.094;2023-04-25T12:12:47;11.10;87.40
5846;DHT22;2949;50.778;7.094;2023-04-25T12:15:24;11.40;84.50
5846;DHT22;2949;50.778;7.094;2023-04-25T12:17:52;11.70;82.70
5846;DHT22;2949;50.778;7.094;2023-04-25T12:20:20;11.90;81.40
5846;DHT22;2949;50.778;7.094;2023-04-25T12:22:49;12.20;80.00
5846;DHT22;2949;50.778;7.094;2023-04-25T12:25:43;12.50;80.60
5846;DHT22;2949;50.778;7.094;2023-04-25T12:28:20;12.70;81.10
5846;DHT22;2949;50.778;7.094;2023-04-25T12:31:04;13.00;80.10
5846;DHT22;2949;50.778;7.094;2023-04-25T12:33:39;13.00;78.00
5846;DHT22;2949;50.778;7.094;2023-04-25T12:36:06;12.90;77.80
5846;DHT22;2949;50.778;7.094;2023-04-25T12:38:38;13.10;80.00
5846;DHT22;2949;50.778;7.094;2023-04-25T12:41:04;13.30;79.10
5846;DHT22;2949;50.778;7.094;2023-04-25T12:43:30;13.20;79.60
5846;DHT22;2949;50.778;7.094;2023-04-25T12:45:56;13.20;80.20
5846;DHT22;2949;50.778;7.094;2023-04-25T12:48:22;13.10;83.90
5846;DHT22;2949;50.778;7.094;2023-04-25T12:50:49;13.10;84.60
5846;DHT22;2949;50.778;7.094;2023-04-25T12:53:16;13.10;80.50
5846;DHT22;2949;50.778;7.094;2023-04-25T12:55:42;13.20;78.10
5846;DHT22;2949;50.778;7.094;2023-04-25T12:58:07;13.30;76.60
5846;DHT22;2949;50.778;7.094;2023-04-25T13:00:33;13.30;76.20
5846;DHT22;2949;50.778;7.094;2023-04-25T13:02:59;13.40;74.10
5846;DHT22;2949;50.778;7.094;2023-04-25T13:05:25;13.50;72.20
5846;DHT22;2949;50.778;7.094;2023-04-25T13:07:50;13.70;74.60
5846;DHT22;2949;50.778;7.094;2023-04-25T13:10:17;13.80;72.00
5846;DHT22;2949;50.778;7.094;2023-04-25T13:12:43;13.80;72.50
5846;DHT22;2949;50.778;7.094;2023-04-25T13:15:09;13.90;71.30
5846;DHT22;2949;50.778;7.094;2023-04-25T13:17:37;14.10;71.30
5846;DHT22;2949;50.778;7.094;2023-04-25T13:20:04;14.20;68.80
5846;DHT22;2949;50.778;7.094;2023-04-25T13:22:34;14.20;69.60
5846;DHT22;2949;50.778;7.094;2023-04-25T13:25:01;14.10;69.80
5846;DHT22;2949;50.778;7.094;2023-04-25T13:27:27;13.90;70.50
5846;DHT22;2949;50.778;7.094;2023-04-25T13:29:52;13.50;70.90
5846;DHT22;2949;50.778;7.094;2023-04-25T13:32:18;13.00;71.50
5846;DHT22;2949;50.778;7.094;2023-04-25T13:34:43;12.60;73.50
5846;DHT22;2949;50.778;7.094;2023-04-25T13:37:09;12.20;77.20
5846;DHT22;2949;50.778;7.094;2023-04-25T13:39:35;11.90;81.30
5846;DHT22;2949;50.778;7.094;2023-04-25T13:42:00;11.70;86.20
5846;DHT22;2949;50.778;7.094;2023-04-25T13:44:27;11.40;85.30
5846;DHT22;2949;50.778;7.094;2023-04-25T13:46:52;11.20;86.60
5846;DHT22;2949;50.778;7.094;2023-04-25T13:49:18;11.00;85.90
5846;DHT22;2949;50.778;7.094;2023-04-25T13:51:43;10.90;88.30
5846;DHT22;2949;50.778;7.094;2023-04-25T13:54:09;10.80;89.30
5846;DHT22;2949;50.778;7.094;2023-04-25T13:56:34;10.80;86.80
5846;DHT22;2949;50.778;7.094;2023-04-25T13:59:00;10.70;88.90
5846;DHT22;2949;50.778;7.094;2023-04-25T14:01:26;10.90;90.40
5846;DHT22;2949;50.778;7.094;2023-04-25T14:03:53;11.10;90.00
5846;DHT22;2949;50.778;7.094;2023-04-25T14:06:19;11.40;89.50
5846;DHT22;2949;50.778;7.094;2023-04-25T14:08:49;11.70;88.90
5846;DHT22;2949;50.778;7.094;2023-04-25T14:11:14;12.00;84.20
5846;DHT22;2949;50.778;7.094;2023-04-25T14:13:40;12.30;82.70
5846;DHT22;2949;50.778;7.094;2023-04-25T14:16:05;12.40;76.80
5846;DHT22;2949;50.778;7.094;2023-04-25T14:18:31;12.40;76.30
5846;DHT22;2949;50.778;7.094;2023-04-25T14:20:56;12.30;73.80
5846;DHT22;2949;50.778;7.094;2023-04-25T14:23:22;12.20;73.80
5846;DHT22;2949;50.778;7.094;2023-04-25T14:25:47;12.20;74.80
5846;DHT22;2949;50.778;7.094;2023-04-25T14:28:13;12.10;75.40
5846;DHT22;2949;50.778;7.094;2023-04-25T14:30:38;12.10;73.80
5846;DHT22;2949;50.778;7.094;2023-04-25T14:33:04;12.00;74.60
5846;DHT22;2949;50.778;7.094;2023-04-25T14:35:29;12.00;74.20
5846;DHT22;2949;50.778;7.094;2023-04-25T14:37:55;11.90;75.30
5846;DHT22;2949;50.778;7.094;2023-04-25T14:40:20;12.10;74.40
5846;DHT22;2949;50.778;7.094;2023-04-25T14:42:48;12.30;76.60
5846;DHT22;2949;50.778;7.094;2023-04-25T14:45:14;12.50;74.50
5846;DHT22;2949;50.778;7.094;2023-04-25T14:47:40;12.30;76.60
5846;DHT22;2949;50.778;7.094;2023-04-25T14:50:07;12.20;76.70
5846;DHT22;2949;50.778;7.094;2023-04-25T14:52:33;12.10;76.70
5846;DHT22;2949;50.778;7.094;2023-04-25T14:54:59;11.90;73.60
5846;DHT22;2949;50.778;7.094;2023-04-25T14:57:34;11.80;70.70
5846;DHT22;2949;50.778;7.094;2023-04-25T15:00:00;11.60;71.50
5846;DHT22;2949;50.778;7.094;2023-04-25T15:02:25;11.60;72.20
5846;DHT22;2949;50.778;7.094;2023-04-25T15:04:52;11.70;72.20
5846;DHT22;2949;50.778;7.094;2023-04-25T15:07:17;11.80;73.00
5846;DHT22;2949;50.778;7.094;2023-04-25T15:09:43;11.90;75.20
5846;DHT22;2949;50.778;7.094;2023-04-25T15:12:09;12.00;71.50
5846;DHT22;2949;50.778;7.094;2023-04-25T15:14:35;12.00;69.80
5846;DHT22;2949;50.778;7.094;2023-04-25T15:17:00;11.90;69.40
5846;DHT22;2949;50.778;7.094;2023-04-25T15:19:26;11.90;67.70
5846;DHT22;2949;50.778;7.094;2023-04-25T15:21:52;11.90;68.40
5846;DHT22;2949;50.778;7.094;2023-04-25T15:24:17;12.00;69.40
5846;DHT22;2949;50.778;7.094;2023-04-25T15:26:43;12.00;70.60
5846;DHT22;2949;50.778;7.094;2023-04-25T15:29:09;12.00;69.70
5846;DHT22;2949;50.778;7.094;2023-04-25T15:31:34;12.20;70.90
5846;DHT22;2949;50.778;7.094;2023-04-25T15:34:01;12.20;70.10
5846;DHT22;2949;50.778;7.094;2023-04-25T15:36:26;12.30;68.90
5846;DHT22;2949;50.778;7.094;2023-04-25T15:38:52;12.20;66.20
5846;DHT22;2949;50.778;7.094;2023-04-25T15:41:17;12.10;66.60
5846;DHT22;2949;50.778;7.094;2023-04-25T15:43:43;12.20;68.30
5846;DHT22;2949;50.778;7.094;2023-04-25T15:46:08;12.30;69.90
5846;DHT22;2949;50.778;7.094;2023-04-25T15:48:34;12.50;71.80
5846;DHT22;2949;50.778;7.094;2023-04-25T15:51:00;12.60;73.10
5846;DHT22;2949;50.778;7.094;2023-04-25T15:53:26;12.60;71.10
5846;DHT22;2949;50.778;7.094;2023-04-25T15:55:51;12.60;72.30
5846;DHT22;2949;50.778;7.094;2023-04-25T15:58:18;12.70;73.70
5846;DHT22;2949;50.778;7.094;2023-04-25T16:00:44;12.80;72.70
5846;DHT22;2949;50.778;7.094;2023-04-25T16:03:13;12.50;72.50
5846;DHT22;2949;50.778;7.094;2023-04-25T16:05:39;12.00;73.40
5846;DHT22;2949;50.778;7.094;2023-04-25T16:08:05;11.70;76.30
5846;DHT22;2949;50.778;7.094;2023-04-25T16:10:31;11.50;80.30
5846;DHT22;2949;50.778;7.094;2023-04-25T16:12:57;11.20;79.80
5846;DHT22;2949;50.778;7.094;2023-04-25T16:15:23;10.90;82.10
5846;DHT22;2949;50.778;7.094;2023-04-25T16:17:48;10.70;84.60
5846;DHT22;2949;50.778;7.094;2023-04-25T16:20:14;10.50;84.50
5846;DHT22;2949;50.778;7.094;2023-04-25T16:22:41;10.40;83.40
5846;DHT22;2949;50.778;7.094;2023-04-25T16:25:08;10.30;86.00
5846;DHT22;2949;50.778;7.094;2023-04-25T16:27:34;10.30;85.90
5846;DHT22;2949;50.778;7.094;2023-04-25T16:30:00;10.20;83.40
5846;DHT22;2949;50.778;7.094;2023-04-25T16:32:26;10.20;82.30
5846;DHT22;2949;50.778;7.094;2023-04-25T16:34:52;10.10;83.10
5846;DHT22;2949;50.778;7.094;2023-04-25T16:37:17;10.10;83.50
5846;DHT22;2949;50.778;7.094;2023-04-25T16:39:43;10.10;82.90
5846;DHT22;2949;50.778;7.094;2023-04-25T16:42:09;10.20;84.00
5846;DHT22;2949;50.778;7.094;2023-04-25T16:44:34;10.30;86.10
5846;DHT22;2949;50.778;7.094;2023-04-25T16:47:00;10.40;86.30
5846;DHT22;2949;50.778;7.094;2023-04-25T16:49:26;10.60;85.80
5846;DHT22;2949;50.778;7.094;2023-04-25T16:51:51;10.80;82.10
5846;DHT22;2949;50.778;7.094;2023-04-25T16:54:17;10.90;81.10
5846;DHT22;2949;50.778;7.094;2023-04-25T16:56:42;10.90;83.30
5846;DHT22;2949;50.778;7.094;2023-04-25T16:59:08;10.90;85.80
5846;DHT22;2949;50.778;7.094;2023-04-25T17:01:34;10.80;82.80
5846;DHT22;2949;50.778;7.094;2023-04-25T17:04:00;10.60;81.70
5846;DHT22;2949;50.778;7.094;2023-04-25T17:06:25;10.40;78.10
5846;DHT22;2949;50.778;7.094;2023-04-25T17:08:51;10.30;78.70
5846;DHT22;2949;50.778;7.094;2023-04-25T17:11:17;10.20;80.60
5846;DHT22;2949;50.778;7.094;2023-04-25T17:13:43;10.00;80.80
5846;DHT22;2949;50.778;7.094;2023-04-25T17:16:09;9.90;83.70
5846;DHT22;2949;50.778;7.094;2023-04-25T17:18:36;9.80;84.60
5846;DHT22;2949;50.778;7.094;2023-04-25T17:21:03;9.70;86.50
5846;DHT22;2949;50.778;7.094;2023-04-25T17:23:30;9.70;89.50
5846;DHT22;2949;50.778;7.094;2023-04-25T17:25:57;9.70;90.90
5846;DHT22;2949;50.778;7.094;2023-04-25T17:28:23;9.80;90.80
5846;DHT22;2949;50.778;7.094;2023-04-25T17:30:48;9.80;91.10
5846;DHT22;2949;50.778;7.094;2023-04-25T17:33:14;9.80;89.80
5846;DHT22;2949;50.778;7.094;2023-04-25T17:35:39;9.70;90.60
5846;DHT22;2949;50.778;7.094;2023-04-25T17:38:05;9.70;91.10
5846;DHT22;2949;50.778;7.094;2023-04-25T17:40:30;9.70;91.30
5846;DHT22;2949;50.778;7.094;2023-04-25T17:42:56;9.70;92.40
5846;DHT22;2949;50.778;7.094;2023-04-25T17:45:22;9.70;92.50
5846;DHT22;2949;50.778;7.094;2023-04-25T17:47:47;9.70;92.50
5846;DHT22;2949;50.778;7.094;2023-04-25T17:50:13;9.70;93.10
5846;DHT22;2949;50.778;7.094;2023-04-25T17:52:41;9.70;93.00
5846;DHT22;2949;50.778;7.094;2023-04-25T17:55:09;9.60;93.90
5846;DHT22;2949;50.778;7.094;2023-04-25T17:57:35;9.60;93.90
5846;DHT22;2949;50.778;7.094;2023-04-25T18:00:21;9.50;94.30
5846;DHT22;2949;50.778;7.094;2023-04-25T18:02:46;9.40;94.70
5846;DHT22;2949;50.778;7.094;2023-04-25T18:05:15;9.30;95.50
5846;DHT22;2949;50.778;7.094;2023-04-25T18:07:40;9.20;95.80
5846;DHT22;2949;50.778;7.094;2023-04-25T18:10:07;9.10;96.40
5846;DHT22;2949;50.778;7.094;2023-04-25T18:12:35;9.00;96.70
5846;DHT22;2949;50.778;7.094;2023-04-25T18:15:01;8.90;97.20
5846;DHT22;2949;50.778;7.094;2023-04-25T18:17:30;8.90;96.30
5846;DHT22;2949;50.778;7.094;2023-04-25T18:19:55;8.80;96.60
5846;DHT22;2949;50.778;7.094;2023-04-25T18:22:21;8.70;97.20
5846;DHT22;2949;50.778;7.094;2023-04-25T18:24:47;8.70;97.60
5846;DHT22;2949;50.778;7.094;2023-04-25T18:27:13;8.70;97.60
5846;DHT22;2949;50.778;7.094;2023-04-25T18:29:38;8.60;97.30
5846;DHT22;2949;50.778;7.094;2023-04-25T18:32:06;8.60;97.80
5846;DHT22;2949;50.778;7.094;2023-04-25T18:34:32;8.60;98.20
5846;DHT22;2949;50.778;7.094;2023-04-25T18:36:58;8.60;98.80
5846;DHT22;2949;50.778;7.094;2023-04-25T18:39:24;8.50;98.90
5846;DHT22;2949;50.778;7.094;2023-04-25T18:41:50;8.50;99.30
5846;DHT22;2949;50.778;7.094;2023-04-25T18:44:15;8.40;99.50
5846;DHT22;2949;50.778;7.094;2023-04-25T18:46:41;8.30;99.90
5846;DHT22;2949;50.778;7.094;2023-04-25T18:49:08;8.20;99.40
5846;DHT22;2949;50.778;7.094;2023-04-25T18:51:33;8.00;99.60
5846;DHT22;2949;50.778;7.094;2023-04-25T18:54:00;7.90;99.90
5846;DHT22;2949;50.778;7.094;2023-04-25T18:56:26;7.70;99.90
5846;DHT22;2949;50.778;7.094;2023-04-25T18:58:53;7.60;99.90
5846;DHT22;2949;50.778;7.094;2023-04-25T19:01:20;7.50;99.90
5846;DHT22;2949;50.778;7.094;2023-04-25T19:03:47;7.40;99.90
5846;DHT22;2949;50.778;7.094;2023-04-25T19:06:24;7.20;99.90
5846;DHT22;2949;50.778;7.094;2023-04-25T19:08:51;7.10;99.90
5846;DHT22;2949;50.778;7.094;2023-04-25T19:11:18;7.00;99.90
5846;DHT22;2949;50.778;7.094;2023-04-25T19:13:44;6.90;99.90
5846;DHT22;2949;50.778;7.094;2023-04-25T19:16:10;6.80;99.90
5846;DHT22;2949;50.778;7.094;2023-04-25T19:18:36;6.70;99.90
5846;DHT22;2949;50.778;7.094;2023-04-25T19:21:02;6.70;99.90
5846;DHT22;2949;50.778;7.094;2023-04-25T19:23:29;6.80;99.90
5846;DHT22;2949;50.778;7.094;2023-04-25T19:25:55;6.70;99.90
5846;DHT22;2949;50.778;7.094;2023-04-25T19:28:21;6.70;99.90
5846;DHT22;2949;50.778;7.094;2023-04-25T19:30:47;6.60;99.90
5846;DHT22;2949;50.778;7.094;2023-04-25T19:33:13;6.60;99.90
5846;DHT22;2949;50.778;7.094;2023-04-25T19:35:39;6.60;99.90
5846;DHT22;2949;50.778;7.094;2023-04-25T19:38:05;6.60;99.90
5846;DHT22;2949;50.778;7.094;2023-04-25T19:40:31;6.50;99.90
5846;DHT22;2949;50.778;7.094;2023-04-25T19:42:57;6.50;99.90
5846;DHT22;2949;50.778;7.094;2023-04-25T19:45:22;6.50;99.90
5846;DHT22;2949;50.778;7.094;2023-04-25T19:47:48;6.40;99.90
5846;DHT22;2949;50.778;7.094;2023-04-25T19:50:14;6.40;99.90
5846;DHT22;2949;50.778;7.094;2023-04-25T19:52:39;6.30;99.90
5846;DHT22;2949;50.778;7.094;2023-04-25T19:55:06;6.20;99.90
5846;DHT22;2949;50.778;7.094;2023-04-25T19:57:35;6.20;99.90
5846;DHT22;2949;50.778;7.094;2023-04-25T20:00:05;6.10;99.90
5846;DHT22;2949;50.778;7.094;2023-04-25T20:02:33;6.20;99.90
5846;DHT22;2949;50.778;7.094;2023-04-25T20:04:59;6.10;99.90
5846;DHT22;2949;50.778;7.094;2023-04-25T20:07:25;6.10;99.90
5846;DHT22;2949;50.778;7.094;2023-04-25T20:09:51;6.20;99.90
5846;DHT22;2949;50.778;7.094;2023-04-25T20:12:16;6.20;99.90
5846;DHT22;2949;50.778;7.094;2023-04-25T20:14:45;6.10;99.90
5846;DHT22;2949;50.778;7.094;2023-04-25T20:17:10;6.10;99.90
5846;DHT22;2949;50.778;7.094;2023-04-25T20:19:37;6.00;99.90
5846;DHT22;2949;50.778;7.094;2023-04-25T20:22:02;6.00;99.90
5846;DHT22;2949;50.778;7.094;2023-04-25T20:24:28;5.90;99.90
5846;DHT22;2949;50.778;7.094;2023-04-25T20:26:54;5.90;99.90
5846;DHT22;2949;50.778;7.094;2023-04-25T20:29:24;5.80;99.90
5846;DHT22;2949;50.778;7.094;2023-04-25T20:31:50;5.80;99.90
5846;DHT22;2949;50.778;7.094;2023-04-25T20:34:20;5.80;99.90